Time;durP1;ratioP1;P1;durP2;ratioP2;P2;SDS_P1;SDS_P2;PMS_P1;PMS_P2;Temp;Humidity;BMP_temperature;BMP_pressure;BME280_temperature;BME280_humidity;BME280_pressure;Samples;Min_cycle;Max_cycle;Signal;HPM_P1;HPM_P2
2023/05/15 00:00:05;;;;;;;14.43;9.27;;;;;;;15.50;100.00;101385.97;2072541;28;20182;-67
2023/05/15 00:01:05;;;;;;;9.87;8.97;;;;;;;15.42;100.00;101379.06;2064846;28;20517;-67
2023/05/15 00:02:06;;;;;;;12.67;9.80;;;;;;;15.38;100.00;101381.94;2064932;28;20441;-67
2023/05/15 00:03:06;;;;;;;13.47;9.40;;;;;;;15.35;100.00;101385.63;2070052;28;20193;-67
2023/05/15 00:04:07;;;;;;;14.07;9.47;;;;;;;15.33;100.00;101374.13;2068993;28;20656;-67
2023/05/15 00:05:07;;;;;;;14.80;9.00;;;;;;;14.44;100.00;101248.09;2067781;28;20725;-67
2023/05/15 00:06:08;;;;;;;12.63;9.23;;;;;;;15.35;100.00;101377.25;2071198;28;20216;-67
2023/05/15 00:07:09;;;;;;;10.70;8.90;;;;;;;15.36;100.00;101372.47;2065144;28;20193;-67
2023/05/15 00:08:09;;;;;;;11.17;9.00;;;;;;;15.35;100.00;101382.03;2072325;28;20401;-67
2023/05/15 00:09:10;;;;;;;13.73;9.03;;;;;;;15.35;100.00;101382.84;2064703;28;20257;-67
2023/05/15 00:10:10;;;;;;;11.37;9.60;;;;;;;15.37;100.00;101369.19;2065017;28;20253;-67
2023/05/15 00:11:11;;;;;;;11.93;8.67;;;;;;;15.38;100.00;101376.34;2064847;28;20186;-67
2023/05/15 00:12:11;;;;;;;12.37;8.60;;;;;;;15.40;100.00;101373.91;2064947;28;20201;-67
2023/05/15 00:13:12;;;;;;;12.00;8.73;;;;;;;15.40;100.00;101378.69;2068164;28;20243;-67
2023/05/15 00:14:12;;;;;;;10.33;8.83;;;;;;;15.39;100.00;101382.72;2076302;28;20568;-67
2023/05/15 00:15:12;;;;;;;10.30;8.80;;;;;;;15.42;100.00;101395.81;2065619;28;20194;-67
2023/05/15 00:16:13;;;;;;;11.43;9.20;;;;;;;15.34;100.00;101384.06;2073273;28;20185;-67
2023/05/15 00:17:13;;;;;;;13.77;9.20;;;;;;;15.44;100.00;101405.31;2072241;28;20568;-67
2023/05/15 00:18:13;;;;;;;15.07;8.87;;;;;;;15.47;100.00;101400.84;2065336;28;20575;-67
2023/05/15 00:19:14;;;;;;;14.93;8.53;;;;;;;15.47;100.00;101404.41;2064199;28;20202;-67
2023/05/15 00:20:15;;;;;;;10.97;8.80;;;;;;;15.42;100.00;101390.22;2069423;28;20352;-67
2023/05/15 00:21:15;;;;;;;14.07;8.40;;;;;;;15.28;100.00;101365.50;2073075;28;20194;-67
2023/05/15 00:22:16;;;;;;;12.00;7.80;;;;;;;15.49;100.00;101398.38;2070673;28;20217;-67
2023/05/15 00:23:16;;;;;;;11.27;8.00;;;;;;;15.48;100.00;101394.00;2064826;28;20206;-67
2023/05/15 00:24:18;;;;;;;11.80;8.50;;;;;;;15.47;100.00;101387.63;2064867;28;20178;-67
2023/05/15 00:25:18;;;;;;;11.90;8.60;;;;;;;15.44;100.00;101394.13;2065015;28;20200;-67
2023/05/15 00:26:19;;;;;;;11.80;8.13;;;;;;;15.42;100.00;101393.78;2071585;28;20429;-67
2023/05/15 00:27:20;;;;;;;12.33;8.07;;;;;;;15.42;100.00;101395.81;2072326;28;20193;-67
2023/05/15 00:28:20;;;;;;;9.13;8.17;;;;;;;15.42;100.00;101399.38;2071663;28;20448;-67
2023/05/15 00:29:21;;;;;;;10.27;8.07;;;;;;;15.41;100.00;101397.00;2068890;28;20194;-67
2023/05/15 00:30:21;;;;;;;10.00;8.17;;;;;;;15.40;100.00;101395.47;2064413;28;20197;-67
2023/05/15 00:31:21;;;;;;;14.73;7.80;;;;;;;14.50;100.00;101260.28;2065602;28;20191;-67
2023/05/15 00:32:22;;;;;;;12.10;8.73;;;;;;;15.36;100.00;101398.38;2072559;28;20220;-67
2023/05/15 00:33:22;;;;;;;12.53;8.20;;;;;;;15.37;100.00;101396.38;2073074;28;20574;-67
2023/05/15 00:34:23;;;;;;;9.67;8.07;;;;;;;15.03;100.00;101359.88;2065150;28;20194;-67
2023/05/15 00:35:24;;;;;;;18.70;8.87;;;;;;;15.33;100.00;101392.91;2064947;28;20201;-67
2023/05/15 00:36:25;;;;;;;15.37;8.10;;;;;;;15.32;100.00;101388.50;2069479;28;20441;-67
2023/05/15 00:37:25;;;;;;;11.40;8.03;;;;;;;15.29;100.00;101394.97;2068511;28;20557;-67
2023/05/15 00:38:25;;;;;;;12.73;7.83;;;;;;;15.28;100.00;101399.81;2066254;28;20205;-67
2023/05/15 00:39:26;;;;;;;11.20;8.30;;;;;;;15.27;100.00;101394.66;2070786;28;20182;-67
2023/05/15 00:40:28;;;;;;;11.80;8.60;;;;;;;15.24;100.00;101399.13;2064670;28;20285;-67
2023/05/15 00:41:31;;;;;;;13.07;8.73;;;;;;;15.24;100.00;101399.13;2073161;28;20200;-67
2023/05/15 00:42:32;;;;;;;19.60;8.70;;;;;;;15.22;100.00;101400.78;2064896;28;20457;-67
2023/05/15 00:43:35;;;;;;;17.80;8.87;;;;;;;15.19;100.00;101396.88;2071570;28;20468;-67
2023/05/15 00:44:37;;;;;;;14.70;8.80;;;;;;;15.18;100.00;101391.72;2066831;28;20453;-67
2023/05/15 00:45:40;;;;;;;11.30;8.37;;;;;;;14.47;100.00;101283.47;2069616;28;20902;-67
2023/05/15 00:46:41;;;;;;;11.73;9.07;;;;;;;15.08;100.00;101379.69;2072167;28;20490;-67
2023/05/15 00:47:42;;;;;;;12.80;8.40;;;;;;;15.04;100.00;101384.56;2069196;28;20429;-67
2023/05/15 00:48:43;;;;;;;10.27;8.10;;;;;;;14.89;100.00;101363.91;2065808;28;20491;-67
2023/05/15 00:49:44;;;;;;;10.90;8.93;;;;;;;14.98;100.00;101371.59;2072073;28;20433;-67
2023/05/15 00:50:45;;;;;;;13.77;9.10;;;;;;;14.88;100.00;101364.34;2080391;28;20272;-67
2023/05/15 00:51:45;;;;;;;13.87;9.23;;;;;;;14.77;100.00;101355.50;2072485;28;20695;-67
2023/05/15 00:52:46;;;;;;;13.50;8.70;;;;;;;14.77;100.00;101361.88;2077908;28;20191;-67
2023/05/15 00:53:49;;;;;;;10.53;9.17;;;;;;;14.51;100.00;101314.81;2074906;28;20189;-67
2023/05/15 00:54:50;;;;;;;13.57;9.33;;;;;;;14.89;100.00;101375.06;2067348;28;20828;-67
2023/05/15 00:55:51;;;;;;;11.93;9.50;;;;;;;14.27;100.00;101286.44;2064490;28;20831;-67
2023/05/15 00:56:54;;;;;;;10.67;8.37;;;;;;;14.80;100.00;101363.00;2066764;28;20605;-67
2023/05/15 00:57:57;;;;;;;13.67;9.00;;;;;;;14.87;100.00;101374.72;2069289;28;20421;-67
2023/05/15 00:58:59;;;;;;;11.80;8.60;;;;;;;14.88;100.00;101361.53;2056955;28;20558;-67
2023/05/15 01:00:01;;;;;;;16.73;9.60;;;;;;;14.90;100.00;101368.25;2071075;28;20431;-67
2023/05/15 01:01:01;;;;;;;15.03;8.83;;;;;;;14.91;100.00;101369.03;2072355;28;20471;-67
2023/05/15 01:02:02;;;;;;;14.00;9.13;;;;;;;14.89;100.00;101358.31;2064914;28;20433;-67
2023/05/15 01:03:04;;;;;;;10.63;9.10;;;;;;;14.44;100.00;101290.69;2064486;28;20283;-67
2023/05/15 01:04:05;;;;;;;11.70;8.73;;;;;;;14.79;100.00;101350.25;2070244;28;20442;-67
2023/05/15 01:05:07;;;;;;;12.77;9.00;;;;;;;14.87;100.00;101358.00;2068252;28;20463;-67
2023/05/15 01:06:08;;;;;;;15.73;9.57;;;;;;;14.66;100.00;101324.34;2067318;28;20270;-67
2023/05/15 01:07:09;;;;;;;12.77;8.77;;;;;;;14.84;100.00;101353.28;2068896;28;20424;-67
2023/05/15 01:08:25;;;;;;;15.20;9.03;;;;;;;13.84;100.00;101196.84;2063631;28;20194;-67
2023/05/15 01:09:28;;;;;;;13.70;8.80;;;;;;;14.78;100.00;101345.91;2063979;28;20174;-67
2023/05/15 01:10:29;;;;;;;12.10;8.63;;;;;;;14.80;100.00;101349.81;2064335;28;20516;-67
2023/05/15 01:11:35;;;;;;;11.77;8.97;;;;;;;14.09;100.00;101241.50;2064301;28;20931;-67
2023/05/15 01:12:38;;;;;;;14.50;9.23;;;;;;;14.53;100.00;101307.56;2072727;28;20173;-67
2023/05/15 01:13:39;;;;;;;13.93;8.73;;;;;;;14.76;100.00;101346.34;2064338;28;20452;-67
2023/05/15 01:14:39;;;;;;;12.90;9.43;;;;;;;14.74;100.00;101343.22;2064195;28;20456;-67
2023/05/15 01:15:40;;;;;;;12.67;8.93;;;;;;;14.74;100.00;101340.44;2064413;28;20624;-67
2023/05/15 01:16:41;;;;;;;15.53;9.27;;;;;;;14.74;100.00;101348.78;2063793;28;20194;-67
2023/05/15 01:17:41;;;;;;;14.37;9.10;;;;;;;14.73;100.00;101341.66;2075757;28;20196;-67
2023/05/15 01:18:42;;;;;;;12.77;8.97;;;;;;;14.73;100.00;101343.66;2079519;28;20753;-67
2023/05/15 01:19:45;;;;;;;10.13;8.83;;;;;;;14.65;100.00;101331.91;2069931;28;20185;-67
2023/05/15 01:20:54;;;;;;;12.50;8.87;;;;;;;14.71;100.00;101346.13;2064289;28;20178;-67
2023/05/15 01:22:04;;;;;;;16.83;9.90;;;;;;;14.70;100.00;101350.91;2065511;28;20422;-67
2023/05/15 01:23:08;;;;;;;10.30;9.20;;;;;;;14.70;100.00;101355.72;2079735;28;20404;-67
2023/05/15 01:24:42;;;;;;;10.47;9.13;;;;;;;14.65;100.00;101345.88;2079098;28;20517;-67
2023/05/15 01:26:10;;;;;;;16.03;8.87;;;;;;;14.57;100.00;101340.94;2064396;28;20451;-67
2023/05/15 01:27:57;;;;;;;13.17;8.90;;;;;;;14.53;100.00;101351.41;2070238;28;20428;-67
2023/05/15 01:29:08;;;;;;;13.73;8.50;;;;;;;14.53;100.00;101362.56;2079059;28;20537;-67
2023/05/15 01:30:22;;;;;;;18.40;9.70;;;;;;;14.21;100.00;101315.28;2079431;28;20432;-67
2023/05/15 01:31:25;;;;;;;15.67;8.50;;;;;;;14.21;100.00;101315.28;2079713;28;20594;-67
2023/05/15 01:33:15;;;;;;;18.03;9.60;;;;;;;14.10;100.00;101296.00;2079368;28;20921;-67
2023/05/15 01:34:18;;;;;;;14.43;8.63;;;;;;;14.48;100.00;101357.53;2069201;28;20474;-67
2023/05/15 01:35:28;;;;;;;12.20;9.57;;;;;;;14.40;100.00;101345.03;2064390;28;20448;-67
2023/05/15 01:36:33;;;;;;;11.27;9.30;;;;;;;14.40;100.00;101350.59;2071527;28;20436;-67
2023/05/15 01:37:40;;;;;;;13.13;10.20;;;;;;;14.39;100.00;101354.63;2065378;28;20933;-67
2023/05/15 01:38:52;;;;;;;14.43;10.30;;;;;;;14.40;100.00;101350.59;2070331;28;20445;-67
2023/05/15 01:39:56;;;;;;;11.40;10.13;;;;;;;14.40;100.00;101350.59;2071696;28;20930;-67
2023/05/15 01:41:21;;;;;;;12.27;9.80;;;;;;;14.43;100.00;101347.72;2072356;28;20518;-67
2023/05/15 01:42:29;;;;;;;12.40;9.73;;;;;;;14.45;100.00;101345.25;2064350;28;20496;-67
2023/05/15 01:43:32;;;;;;;16.13;11.07;;;;;;;14.46;100.00;101351.63;2064435;28;20551;-67
2023/05/15 01:44:44;;;;;;;18.40;10.10;;;;;;;14.39;100.00;101337.88;2071718;28;20571;-67
2023/05/15 01:45:45;;;;;;;15.63;10.37;;;;;;;14.48;100.00;101357.53;2068551;28;20430;-67
2023/05/15 01:46:49;;;;;;;14.13;9.53;;;;;;;14.50;100.00;101352.31;2065164;28;20970;-67
2023/05/15 01:47:53;;;;;;;12.07;9.43;;;;;;;13.90;100.00;101261.97;2070378;28;20192;-67
2023/05/15 01:48:53;;;;;;;14.87;9.40;;;;;;;14.53;100.00;101351.41;2071884;28;21038;-67
2023/05/15 01:49:56;;;;;;;19.13;10.33;;;;;;;13.90;100.00;101255.59;2071498;28;20829;-67
2023/05/15 01:51:02;;;;;;;13.73;9.53;;;;;;;14.53;100.00;101343.03;2072299;28;20626;-67
2023/05/15 01:52:11;;;;;;;14.67;9.70;;;;;;;14.53;100.00;101343.84;2069336;28;20433;-67
2023/05/15 01:53:14;;;;;;;13.73;9.00;;;;;;;14.54;100.00;101336.22;2067369;28;20447;-67
2023/05/15 01:54:15;;;;;;;12.90;9.37;;;;;;;14.56;100.00;101344.97;2069859;28;20466;-67
2023/05/15 01:55:17;;;;;;;12.93;9.27;;;;;;;14.43;100.00;101327.38;2063932;28;21020;-67
2023/05/15 01:56:18;;;;;;;17.17;9.80;;;;;;;14.54;100.00;101350.97;2064362;28;20428;-67
2023/05/15 01:57:20;;;;;;;15.70;10.77;;;;;;;14.16;100.00;101288.72;2072122;28;20795;-67
2023/05/15 01:58:24;;;;;;;13.33;11.60;;;;;;;14.31;100.00;101308.63;2063685;28;20980;-67
2023/05/15 01:59:25;;;;;;;27.77;24.90;;;;;;;14.49;100.00;101345.16;2070710;28;20879;-67
2023/05/15 02:00:27;;;;;;;35.63;31.57;;;;;;;14.63;100.00;101365.06;2066159;28;20525;-67
2023/05/15 02:01:31;;;;;;;498.70;153.63;;;;;;;14.37;100.00;101324.38;2066648;28;20483;-67
2023/05/15 02:02:32;;;;;;;286.17;125.60;;;;;;;14.63;100.00;101367.84;2064130;28;20456;-67
2023/05/15 02:03:33;;;;;;;217.70;117.97;;;;;;;14.58;100.00;101348.88;2067231;28;20536;-67
2023/05/15 02:04:35;;;;;;;54.33;38.87;;;;;;;14.65;100.00;101359.03;2070045;28;20984;-67
2023/05/15 02:05:37;;;;;;;17.47;11.10;;;;;;;14.61;100.00;101345.19;2065370;28;20204;-67
2023/05/15 02:06:39;;;;;;;16.70;10.53;;;;;;;14.56;100.00;101345.72;2071445;28;20952;-67
2023/05/15 02:07:44;;;;;;;38.47;34.60;;;;;;;14.56;100.00;101342.16;2064209;28;21016;-67
2023/05/15 02:08:45;;;;;;;25.57;21.87;;;;;;;14.54;100.00;101336.22;2071650;28;20435;-67
2023/05/15 02:09:47;;;;;;;33.23;28.00;;;;;;;14.50;100.00;101343.94;2064741;28;20451;-67
2023/05/15 02:10:48;;;;;;;35.87;31.87;;;;;;;14.47;100.00;101333.66;2064063;28;20833;-67
2023/05/15 02:11:50;;;;;;;35.87;32.67;;;;;;;13.79;100.00;101243.97;2064163;28;20431;-67
2023/05/15 02:12:51;;;;;;;39.17;35.30;;;;;;;14.32;100.00;101324.13;2063981;28;20452;-67
2023/05/15 02:13:55;;;;;;;38.27;34.47;;;;;;;14.38;100.00;101325.94;2064011;28;20438;-67
2023/05/15 02:14:58;;;;;;;34.63;31.23;;;;;;;14.37;100.00;101323.59;2063622;28;20510;-67
2023/05/15 02:15:58;;;;;;;39.03;35.03;;;;;;;14.33;100.00;101306.16;2064060;28;20520;-67
2023/05/15 02:16:58;;;;;;;37.13;33.33;;;;;;;14.39;100.00;101312.78;2063555;28;20626;-67
2023/05/15 02:17:59;;;;;;;30.63;27.30;;;;;;;14.38;100.00;101302.84;2063695;28;20193;-67
2023/05/15 02:19:00;;;;;;;34.33;30.93;;;;;;;14.36;100.00;101300.50;2064028;28;20197;-67
2023/05/15 02:20:00;;;;;;;31.40;28.20;;;;;;;14.36;100.00;101306.09;2063394;28;20211;-67
2023/05/15 02:21:01;;;;;;;25.67;23.07;;;;;;;14.37;100.00;101302.06;2064153;28;20190;-67
2023/05/15 02:22:02;;;;;;;24.40;21.37;;;;;;;14.37;100.00;101302.06;2068194;28;20635;-67
2023/05/15 02:23:02;;;;;;;20.40;18.33;;;;;;;13.15;100.00;101119.59;2072696;28;20493;-67
2023/05/15 02:24:03;;;;;;;22.03;19.77;;;;;;;14.33;100.00;101309.75;2073886;28;20206;-67
2023/05/15 02:25:04;;;;;;;21.97;19.67;;;;;;;14.33;100.00;101301.38;2073615;28;20195;-67
2023/05/15 02:26:26;;;;;;;20.90;18.90;;;;;;;14.28;100.00;101310.28;2074040;28;20236;-67
2023/05/15 02:27:32;;;;;;;23.70;21.20;;;;;;;14.35;100.00;101320.47;2073442;28;20625;-67
2023/05/15 02:29:14;;;;;;;39.10;35.07;;;;;;;14.39;100.00;101323.94;2072772;28;20449;-67
2023/05/15 02:30:32;;;;;;;53.67;48.53;;;;;;;14.39;100.00;101310.78;2072661;28;20442;-67
2023/05/15 02:31:58;;;;;;;53.83;48.77;;;;;;;14.36;100.00;101320.03;2067307;28;20540;-67
2023/05/15 02:33:24;;;;;;;34.83;29.30;;;;;;;13.96;100.00;101251.84;2065785;28;20414;-67
2023/05/15 02:34:30;;;;;;;19.47;17.50;;;;;;;14.27;100.00;101313.50;2067112;28;20534;-67
2023/05/15 02:35:32;;;;;;;15.23;13.57;;;;;;;14.26;100.00;101309.97;2073683;28;20950;-67
2023/05/15 02:36:35;;;;;;;16.50;14.13;;;;;;;14.26;100.00;101309.16;2073242;28;20480;-67
2023/05/15 02:37:38;;;;;;;20.27;18.17;;;;;;;13.25;100.00;101162.28;2073910;28;20418;-67
2023/05/15 02:38:51;;;;;;;18.30;16.37;;;;;;;14.26;100.00;101307.16;2065249;28;20423;-67
2023/05/15 02:39:53;;;;;;;18.13;16.37;;;;;;;14.09;100.00;101291.66;2065161;28;20426;-67
2023/05/15 02:40:56;;;;;;;16.60;14.87;;;;;;;13.70;100.00;101247.38;2065412;28;20454;-67
2023/05/15 02:41:59;;;;;;;19.23;13.70;;;;;;;14.20;100.00;101303.34;2065578;28;20441;-67
2023/05/15 02:43:00;;;;;;;15.20;12.23;;;;;;;14.21;100.00;101304.13;2071807;28;20959;-67
2023/05/15 02:44:02;;;;;;;18.07;11.67;;;;;;;13.54;100.00;101202.06;2068572;28;20495;-67
2023/05/15 02:45:04;;;;;;;15.97;11.63;;;;;;;13.39;100.00;101164.69;2065617;28;20437;-67
2023/05/15 02:46:06;;;;;;;18.80;11.30;;;;;;;14.26;100.00;101301.59;2072348;28;20456;-67
2023/05/15 02:47:07;;;;;;;13.43;12.03;;;;;;;14.28;100.00;101310.28;2070717;28;20423;-67
2023/05/15 02:48:08;;;;;;;18.30;13.50;;;;;;;14.31;100.00;101314.19;2064728;28;20427;-67
2023/05/15 02:49:09;;;;;;;15.70;11.47;;;;;;;14.31;100.00;101315.00;2064908;28;20418;-67
2023/05/15 02:50:10;;;;;;;14.37;11.50;;;;;;;14.31;100.00;101315.00;2065848;28;20205;-67
2023/05/15 02:51:11;;;;;;;15.03;12.07;;;;;;;14.30;100.00;101313.41;2065384;28;20467;-67
2023/05/15 02:52:11;;;;;;;18.33;12.40;;;;;;;14.33;100.00;101312.53;2065662;28;20926;-67
2023/05/15 02:53:13;;;;;;;15.87;12.90;;;;;;;14.36;100.00;101317.25;2065634;28;20201;-67
2023/05/15 02:54:14;;;;;;;14.63;11.90;;;;;;;13.84;100.00;101223.94;2070934;28;20187;-67
2023/05/15 02:55:15;;;;;;;13.73;11.63;;;;;;;14.41;100.00;101301.97;2070411;28;20450;-67
2023/05/15 02:56:15;;;;;;;12.90;11.57;;;;;;;14.41;100.00;101299.97;2065407;28;20517;-67
2023/05/15 02:57:15;;;;;;;13.37;11.50;;;;;;;14.43;100.00;101303.09;2065228;28;20186;-67
2023/05/15 02:58:16;;;;;;;12.63;11.33;;;;;;;14.39;100.00;101296.81;2064935;28;20188;-67
2023/05/15 02:59:18;;;;;;;16.10;11.07;;;;;;;14.47;100.00;101311.34;2065284;28;20564;-67
2023/05/15 03:00:19;;;;;;;18.50;12.50;;;;;;;14.50;100.00;101319.59;2065518;28;20574;-67
2023/05/15 03:01:20;;;;;;;17.00;12.27;;;;;;;14.53;100.00;101327.09;2071080;28;20434;-67
2023/05/15 03:02:20;;;;;;;18.60;11.77;;;;;;;14.56;100.00;101334.56;2068753;28;20732;-67
2023/05/15 03:03:21;;;;;;;15.13;11.30;;;;;;;14.57;100.00;101347.31;2068976;28;20222;-67
2023/05/15 03:04:21;;;;;;;15.67;10.90;;;;;;;14.60;100.00;101340.06;2073395;28;20189;-67
2023/05/15 03:05:21;;;;;;;13.83;11.10;;;;;;;14.63;100.00;101339.97;2072490;28;20182;-67
2023/05/15 03:06:22;;;;;;;16.20;10.73;;;;;;;13.91;100.00;101238.44;2065269;28;20265;-67
2023/05/15 03:07:22;;;;;;;17.37;11.57;;;;;;;14.63;100.00;101347.53;2065201;28;20660;-67
2023/05/15 03:08:23;;;;;;;15.73;10.97;;;;;;;14.65;100.00;101359.03;2071571;28;20714;-67
2023/05/15 03:09:24;;;;;;;16.97;11.00;;;;;;;14.68;100.00;101350.56;2067253;28;20203;-67
2023/05/15 03:10:24;;;;;;;20.63;10.00;;;;;;;14.70;100.00;101352.94;2070138;28;20214;-67
2023/05/15 03:11:25;;;;;;;14.30;9.90;;;;;;;14.70;100.00;101353.69;2069660;28;20444;-67
2023/05/15 03:12:25;;;;;;;14.57;9.33;;;;;;;14.74;100.00;101353.59;2067872;28;20213;-67
2023/05/15 03:13:26;;;;;;;13.30;10.43;;;;;;;14.75;100.00;101355.94;2071790;28;20207;-67
2023/05/15 03:14:26;;;;;;;12.27;9.73;;;;;;;14.77;100.00;101363.88;2065575;28;20193;-67
2023/05/15 03:15:27;;;;;;;16.57;9.80;;;;;;;14.79;100.00;101366.97;2073626;28;20182;-67
2023/05/15 03:16:27;;;;;;;15.43;9.47;;;;;;;14.76;100.00;101354.69;2065727;28;20201;-67
2023/05/15 03:17:28;;;;;;;14.80;9.67;;;;;;;14.64;100.00;101332.34;2071356;28;20268;-67
2023/05/15 03:18:28;;;;;;;11.03;9.20;;;;;;;14.45;100.00;101297.06;2067455;28;20197;-67
2023/05/15 03:19:28;;;;;;;12.60;9.30;;;;;;;14.82;100.00;101350.16;2068934;28;20198;-67
2023/05/15 03:20:29;;;;;;;13.73;9.63;;;;;;;14.82;100.00;101350.16;2070380;28;20197;-67
2023/05/15 03:21:29;;;;;;;18.07;10.37;;;;;;;14.77;100.00;101336.75;2066921;28;20183;-67
2023/05/15 03:22:30;;;;;;;14.67;10.00;;;;;;;14.81;100.00;101345.78;2072442;28;20724;-67
2023/05/15 03:23:30;;;;;;;10.77;9.67;;;;;;;14.82;100.00;101369.69;2065837;28;20288;-67
2023/05/15 03:24:31;;;;;;;12.90;9.63;;;;;;;14.41;100.00;101282.44;2072831;28;20218;-67
2023/05/15 03:25:31;;;;;;;13.03;9.37;;;;;;;14.82;100.00;101352.16;2066879;28;20189;-67
2023/05/15 03:26:32;;;;;;;11.20;9.57;;;;;;;14.38;100.00;101283.31;2070461;28;20194;-67
2023/05/15 03:27:32;;;;;;;11.03;9.67;;;;;;;14.83;100.00;101353.72;2069009;28;20219;-67
2023/05/15 03:28:32;;;;;;;14.37;10.03;;;;;;;14.84;100.00;101353.28;2067537;28;20660;-67
2023/05/15 03:29:33;;;;;;;14.50;10.03;;;;;;;14.86;100.00;101352.84;2070911;28;20178;-67
2023/05/15 03:30:33;;;;;;;14.87;10.60;;;;;;;14.86;100.00;101352.84;2066109;28;20208;-67
2023/05/15 03:31:34;;;;;;;16.70;10.43;;;;;;;14.80;100.00;101338.66;2073294;28;20543;-67
2023/05/15 03:32:34;;;;;;;14.00;10.67;;;;;;;14.85;100.00;101340.13;2073446;28;20216;-67
2023/05/15 03:33:35;;;;;;;18.30;10.40;;;;;;;14.85;100.00;101337.34;2073298;28;20267;-67
2023/05/15 03:34:35;;;;;;;13.80;9.57;;;;;;;14.27;100.00;101246.59;2066719;28;20547;-67
2023/05/15 03:35:36;;;;;;;14.97;9.67;;;;;;;14.86;100.00;101333.31;2069638;28;20206;-67
2023/05/15 03:36:36;;;;;;;12.43;9.37;;;;;;;14.80;100.00;101335.84;2069052;28;20208;-67
2023/05/15 03:37:37;;;;;;;12.30;9.70;;;;;;;14.86;100.00;101330.53;2067355;28;20185;-67
2023/05/15 03:38:37;;;;;;;17.73;9.80;;;;;;;14.79;100.00;101319.56;2072516;28;20185;-67
2023/05/15 03:39:38;;;;;;;15.23;9.93;;;;;;;14.90;100.00;101328.41;2072826;28;20607;-67
2023/05/15 03:40:38;;;;;;;16.57;10.10;;;;;;;14.87;100.00;101334.88;2065121;28;20252;-67
2023/05/15 03:41:40;;;;;;;15.10;10.20;;;;;;;14.86;100.00;101333.31;2065104;28;20220;-67
2023/05/15 03:42:40;;;;;;;13.33;10.33;;;;;;;14.85;100.00;101321.34;2071225;28;20469;-67
2023/05/15 03:43:40;;;;;;;15.77;11.10;;;;;;;14.88;100.00;101322.47;2073107;28;20291;-67
2023/05/15 03:44:41;;;;;;;12.87;10.80;;;;;;;14.88;100.00;101316.88;2073210;28;20192;-67
2023/05/15 03:45:41;;;;;;;11.97;10.67;;;;;;;14.90;100.00;101311.66;2073178;28;20760;-67
2023/05/15 03:46:42;;;;;;;11.37;10.27;;;;;;;14.92;100.00;101312.78;2071042;28;20174;-67
2023/05/15 03:47:42;;;;;;;12.20;10.80;;;;;;;14.95;100.00;101311.09;2065193;28;20181;-67
2023/05/15 03:48:42;;;;;;;13.40;10.53;;;;;;;14.95;100.00;101320.25;2072753;28;20180;-67
2023/05/15 03:49:43;;;;;;;15.17;10.47;;;;;;;14.96;100.00;101319.00;2065441;28;20220;-67
2023/05/15 03:50:44;;;;;;;12.03;10.70;;;;;;;15.01;100.00;101317.69;2071102;28;20609;-67
2023/05/15 03:51:44;;;;;;;13.47;10.27;;;;;;;14.96;100.00;101310.66;2067890;28;20477;-67
2023/05/15 03:52:45;;;;;;;14.63;10.30;;;;;;;15.09;100.00;101321.81;2068979;28;20443;-67
2023/05/15 03:53:45;;;;;;;13.37;10.20;;;;;;;15.11;100.00;101322.94;2071916;28;20205;-67
2023/05/15 03:54:46;;;;;;;15.57;10.63;;;;;;;15.13;100.00;101322.50;2071328;28;20186;-67
2023/05/15 03:55:46;;;;;;;18.03;10.77;;;;;;;15.16;100.00;101322.38;2064890;28;20185;-67
2023/05/15 03:56:47;;;;;;;18.07;10.27;;;;;;;15.17;100.00;101312.00;2064600;28;20224;-69
2023/05/15 03:57:48;;;;;;;16.40;11.20;;;;;;;15.17;100.00;101312.75;2071221;28;20560;-68
2023/05/15 03:58:48;;;;;;;14.47;10.43;;;;;;;15.14;100.00;101298.94;2072119;28;20541;-63
2023/05/15 03:59:49;;;;;;;14.90;10.50;;;;;;;15.33;100.00;101323.06;2065663;28;20211;-65
2023/05/15 04:00:49;;;;;;;13.23;10.20;;;;;;;15.36;100.00;101317.38;2071393;28;20201;-66
2023/05/15 04:01:50;;;;;;;11.93;9.77;;;;;;;15.40;100.00;101320.84;2069773;28;20274;-64
2023/05/15 04:02:50;;;;;;;14.23;9.80;;;;;;;15.45;100.00;101320.28;2064976;28;20664;-65
2023/05/15 04:03:50;;;;;;;13.37;9.57;;;;;;;15.49;100.00;101320.16;2081604;28;20208;-66
2023/05/15 04:04:51;;;;;;;12.73;8.77;;;;;;;15.09;100.00;101257.59;2080637;28;20612;-68
2023/05/15 04:05:51;;;;;;;9.67;8.03;;;;;;;15.55;100.00;101330.31;2068548;28;20687;-67
2023/05/15 04:06:52;;;;;;;11.33;7.60;;;;;;;15.57;100.00;101341.06;2072386;28;20267;-66
2023/05/15 04:07:52;;;;;;;10.20;7.30;;;;;;;15.58;100.00;101342.59;2066961;28;20209;-67
2023/05/15 04:08:53;;;;;;;10.70;7.30;;;;;;;15.50;100.00;101330.88;2070030;28;20196;-68
2023/05/15 04:09:53;;;;;;;9.43;7.60;;;;;;;15.53;100.00;101338.34;2068355;28;20221;-67
2023/05/15 04:10:53;;;;;;;9.30;7.47;;;;;;;15.45;100.00;101333.44;2078915;28;20537;-65
2023/05/15 04:11:54;;;;;;;12.60;7.40;;;;;;;15.36;100.00;101322.97;2072727;28;20197;-65
2023/05/15 04:12:54;;;;;;;9.40;6.67;;;;;;;15.53;100.00;101329.97;2072992;28;20559;-65
2023/05/15 04:13:54;;;;;;;9.07;7.37;;;;;;;15.54;100.00;101331.56;2077616;28;20189;-65
2023/05/15 04:15:12;;;;;;;11.37;7.50;;;;;;;15.59;100.00;101336.59;2073675;28;20675;-66
2023/05/15 04:16:13;;;;;;;8.80;6.63;;;;;;;15.66;100.00;101321.56;2064816;28;20205;-66
2023/05/15 04:17:14;;;;;;;10.00;6.67;;;;;;;15.64;100.00;101318.47;2071007;28;20537;-67
2023/05/15 04:18:14;;;;;;;10.50;6.80;;;;;;;15.63;100.00;101319.69;2066368;28;20946;-65
2023/05/15 04:19:14;;;;;;;9.90;6.47;;;;;;;15.61;100.00;101310.97;2067012;28;20201;-64
2023/05/15 04:20:17;;;;;;;7.33;6.53;;;;;;;15.61;100.00;101311.75;2064079;28;20645;-62
2023/05/15 04:21:18;;;;;;;8.00;6.30;;;;;;;15.43;100.00;101286.41;2067671;28;23965;-61
2023/05/15 04:22:18;;;;;;;11.03;6.53;;;;;;;15.62;100.00;101318.13;2073984;28;20462;-65
2023/05/15 04:23:19;;;;;;;8.43;6.63;;;;;;;15.66;100.00;101322.38;2072986;28;20181;-63
2023/05/15 04:24:19;;;;;;;9.97;6.00;;;;;;;15.67;100.00;101329.50;2081025;28;20177;-63
2023/05/15 04:25:20;;;;;;;9.20;6.00;;;;;;;15.66;100.00;101321.56;2073759;28;20488;-63
2023/05/15 04:26:20;;;;;;;7.10;5.50;;;;;;;15.62;100.00;101318.91;2066365;28;20643;-64
2023/05/15 04:27:21;;;;;;;9.47;6.30;;;;;;;15.58;100.00;101315.44;2069493;28;20205;-64
2023/05/15 04:28:21;;;;;;;7.43;6.20;;;;;;;15.55;100.00;101310.75;2067679;28;20190;-64
2023/05/15 04:29:22;;;;;;;9.30;6.27;;;;;;;15.48;100.00;101294.22;2072158;28;20867;-64
2023/05/15 04:30:22;;;;;;;7.30;5.40;;;;;;;15.57;100.00;101307.53;2070586;28;20193;-63
2023/05/15 04:31:23;;;;;;;9.03;5.77;;;;;;;15.55;100.00;101310.75;2064537;28;20182;-64
2023/05/15 04:32:23;;;;;;;8.97;6.10;;;;;;;15.64;100.00;101319.25;2072651;28;20181;-64
2023/05/15 04:33:24;;;;;;;8.57;5.90;;;;;;;15.68;100.00;101313.53;2072515;28;20710;-71
2023/05/15 04:34:25;;;;;;;8.27;5.70;;;;;;;15.69;100.00;101321.47;2070574;28;20193;-69
2023/05/15 04:35:25;;;;;;;7.20;5.50;;;;;;;15.65;100.00;101331.19;2067308;28;20197;-68
2023/05/15 04:36:26;;;;;;;8.60;5.53;;;;;;;15.66;100.00;101319.56;2063400;28;20673;-61
2023/05/15 04:37:27;;;;;;;8.07;5.63;;;;;;;15.42;100.00;101296.03;2063461;28;20190;-63
2023/05/15 04:38:27;;;;;;;10.40;5.33;;;;;;;15.56;100.00;101320.69;2063860;28;20189;-61
2023/05/15 04:39:28;;;;;;;11.03;5.93;;;;;;;15.50;100.00;101322.50;2070868;28;20437;-62
2023/05/15 04:40:28;;;;;;;7.77;5.90;;;;;;;15.53;100.00;101326.41;2063817;28;20240;-62
2023/05/15 04:41:29;;;;;;;7.03;5.13;;;;;;;15.50;100.00;101328.09;2063979;28;20218;-62
2023/05/15 04:42:29;;;;;;;7.17;5.33;;;;;;;15.45;100.00;101328.66;2070599;28;20193;-61
2023/05/15 04:43:30;;;;;;;8.77;5.37;;;;;;;15.44;100.00;101331.91;2064545;28;20284;-61